DLH71H EDDF-LEIB
Flight info
| Callsign | DLH71H |
|---|---|
| Flight time | 2h 5m |
| Altitude | 39000 |
| Route | ANEKI2L/18 ANEKI Y163 HERBI/N0438F390 Y164 MOPAN DCT LUTIX DCT BENOT DCT NEMOS DCT GEVEA DCT INCUS DCT BALSI DCT RETNO DCT TUPOX DCT MTG DCT DIVKO DCT VATIR DCT PIVUS DCT SULID DCT DIMIB DCT POS |
| Aircraft | A20N/M-SDE2E3FGHIRWXY/LB1 |
Departure
| Time | 2026-05-04 14:33 |
|---|---|
| Airport | Frankfurt Main Airport (EDDF) |
Arrival
| Time | 2026-05-04 16:39 |
|---|---|
| Airport | Ibiza Airport (LEIB) |
| Time | Latitude | Longitude | Altitude | Speed | Heading |
|---|---|---|---|---|---|
| 2026-05-04 14:01 | 50.04453 | 8.56431 | 356 ft | 0 kts | 154° |
| 2026-05-04 14:19 | 50.04454 | 8.56430 | 355 ft | 2 kts | 154° |
| 2026-05-04 14:20 | 50.04477 | 8.56415 | 357 ft | 4 kts | 167° |
| 2026-05-04 14:20 | 50.04504 | 8.56411 | 361 ft | 4 kts | 189° |
| 2026-05-04 14:20 | 50.04527 | 8.56426 | 362 ft | 4 kts | 238° |
| 2026-05-04 14:21 | 50.04514 | 8.56377 | 359 ft | 1 kts | 249° |
| 2026-05-04 14:25 | 50.04514 | 8.56376 | 356 ft | 1 kts | 249° |
| 2026-05-04 14:26 | 50.04508 | 8.56350 | 361 ft | 4 kts | 250° |
| 2026-05-04 14:26 | 50.04493 | 8.56289 | 358 ft | 7 kts | 249° |
| 2026-05-04 14:26 | 50.04487 | 8.56260 | 355 ft | 1 kts | 249° |
| 2026-05-04 14:26 | 50.04481 | 8.56239 | 363 ft | 0 kts | 249° |
| 2026-05-04 14:27 | 50.04480 | 8.56235 | 362 ft | 0 kts | 249° |
| 2026-05-04 14:27 | 50.04480 | 8.56232 | 362 ft | 1 kts | 249° |
| 2026-05-04 14:27 | 50.04472 | 8.56199 | 357 ft | 5 kts | 249° |
| 2026-05-04 14:27 | 50.04456 | 8.56133 | 361 ft | 8 kts | 249° |
| 2026-05-04 14:28 | 50.04426 | 8.56047 | 362 ft | 10 kts | 220° |
| 2026-05-04 14:28 | 50.04358 | 8.56047 | 361 ft | 11 kts | 156° |
| 2026-05-04 14:28 | 50.04280 | 8.56058 | 358 ft | 11 kts | 225° |
| 2026-05-04 14:28 | 50.04239 | 8.55936 | 359 ft | 14 kts | 249° |
| 2026-05-04 14:29 | 50.04159 | 8.55611 | 353 ft | 19 kts | 249° |
| 2026-05-04 14:29 | 50.04063 | 8.55206 | 357 ft | 21 kts | 249° |
| 2026-05-04 14:30 | 50.04011 | 8.54987 | 353 ft | 22 kts | 250° |
| 2026-05-04 14:30 | 50.03954 | 8.54748 | 352 ft | 25 kts | 249° |
| 2026-05-04 14:30 | 50.03801 | 8.54225 | 354 ft | 28 kts | 244° |
| 2026-05-04 14:31 | 50.03730 | 8.53938 | 348 ft | 29 kts | 249° |
| 2026-05-04 14:31 | 50.03583 | 8.53340 | 337 ft | 31 kts | 248° |
| 2026-05-04 14:32 | 50.03434 | 8.52732 | 334 ft | 29 kts | 250° |
| 2026-05-04 14:32 | 50.03361 | 8.52598 | 335 ft | 15 kts | 189° |
| 2026-05-04 14:32 | 50.03254 | 8.52594 | 333 ft | 16 kts | 180° |
| 2026-05-04 14:32 | 50.02961 | 8.52593 | 332 ft | 82 kts | 179° |
| 2026-05-04 14:33 | 50.02150 | 8.52598 | 332 ft | 149 kts | 179° |
| 2026-05-04 14:33 | 50.01043 | 8.52621 | 866 ft | 161 kts | 181° |
| 2026-05-04 14:33 | 49.99918 | 8.52631 | 1640 ft | 163 kts | 182° |
| 2026-05-04 14:33 | 49.98769 | 8.52682 | 2497 ft | 167 kts | 181° |
| 2026-05-04 14:34 | 49.97608 | 8.52777 | 3295 ft | 169 kts | 181° |
| 2026-05-04 14:34 | 49.96392 | 8.52848 | 3890 ft | 179 kts | 182° |
| 2026-05-04 14:34 | 49.95093 | 8.52853 | 4237 ft | 206 kts | 184° |
| 2026-05-04 14:34 | 49.93543 | 8.52757 | 4174 ft | 232 kts | 186° |
| 2026-05-04 14:35 | 49.91964 | 8.52574 | 4350 ft | 224 kts | 188° |
| 2026-05-04 14:35 | 49.90381 | 8.52517 | 4620 ft | 234 kts | 176° |
| 2026-05-04 14:35 | 49.88721 | 8.52902 | 5306 ft | 243 kts | 173° |
| 2026-05-04 14:35 | 49.87106 | 8.53288 | 6652 ft | 229 kts | 174° |
| 2026-05-04 14:36 | 49.85546 | 8.53561 | 7724 ft | 229 kts | 176° |
| 2026-05-04 14:36 | 49.83947 | 8.53750 | 8710 ft | 231 kts | 178° |
| 2026-05-04 14:36 | 49.82318 | 8.53885 | 9748 ft | 233 kts | 178° |
| 2026-05-04 14:36 | 49.80692 | 8.53994 | 10655 ft | 236 kts | 179° |
| 2026-05-04 14:37 | 49.79055 | 8.54095 | 11491 ft | 241 kts | 179° |
| 2026-05-04 14:37 | 49.77369 | 8.54070 | 12328 ft | 245 kts | 186° |
| 2026-05-04 14:37 | 49.75606 | 8.53817 | 12835 ft | 266 kts | 186° |
| 2026-05-04 14:37 | 49.73681 | 8.53549 | 13180 ft | 290 kts | 186° |
| 2026-05-04 14:38 | 49.72291 | 8.53361 | 13382 ft | 306 kts | 186° |
| 2026-05-04 14:38 | 49.69331 | 8.52966 | 13755 ft | 336 kts | 186° |
| 2026-05-04 14:38 | 49.66977 | 8.52657 | 14421 ft | 342 kts | 186° |
| 2026-05-04 14:38 | 49.64599 | 8.52346 | 15231 ft | 344 kts | 186° |
| 2026-05-04 14:39 | 49.62202 | 8.52033 | 15981 ft | 348 kts | 186° |
| 2026-05-04 14:39 | 49.59773 | 8.51715 | 16719 ft | 352 kts | 186° |
| 2026-05-04 14:39 | 49.57314 | 8.51392 | 17448 ft | 356 kts | 186° |
| 2026-05-04 14:40 | 49.52329 | 8.50739 | 18816 ft | 363 kts | 187° |
| 2026-05-04 14:40 | 49.49802 | 8.50409 | 19481 ft | 365 kts | 187° |
| 2026-05-04 14:40 | 49.47264 | 8.50077 | 20123 ft | 368 kts | 187° |
| 2026-05-04 14:40 | 49.44700 | 8.49741 | 20749 ft | 371 kts | 187° |
| 2026-05-04 14:41 | 49.42107 | 8.49401 | 21401 ft | 374 kts | 187° |
| 2026-05-04 14:41 | 49.39506 | 8.49061 | 22012 ft | 378 kts | 187° |
| 2026-05-04 14:41 | 49.34228 | 8.48365 | 23252 ft | 383 kts | 188° |
| 2026-05-04 14:42 | 49.29284 | 8.46150 | 24281 ft | 386 kts | 200° |
| 2026-05-04 14:42 | 49.26742 | 8.44777 | 24819 ft | 388 kts | 201° |
| 2026-05-04 14:42 | 49.24198 | 8.43403 | 25349 ft | 390 kts | 201° |
| 2026-05-04 14:43 | 49.21629 | 8.42022 | 25835 ft | 393 kts | 201° |
| 2026-05-04 14:43 | 49.19040 | 8.40635 | 26324 ft | 395 kts | 201° |
| 2026-05-04 14:43 | 49.16442 | 8.39247 | 26821 ft | 397 kts | 201° |
| 2026-05-04 14:43 | 49.13817 | 8.37848 | 27338 ft | 399 kts | 201° |
| 2026-05-04 14:44 | 49.11186 | 8.36448 | 27833 ft | 402 kts | 201° |
| 2026-05-04 14:44 | 49.08542 | 8.35044 | 28314 ft | 403 kts | 201° |
| 2026-05-04 14:44 | 49.05890 | 8.33636 | 28773 ft | 406 kts | 201° |
| 2026-05-04 14:44 | 49.03214 | 8.32218 | 29250 ft | 408 kts | 201° |
| 2026-05-04 14:45 | 49.00534 | 8.30800 | 29661 ft | 410 kts | 201° |
| 2026-05-04 14:45 | 48.97833 | 8.29371 | 30061 ft | 412 kts | 200° |
| 2026-05-04 14:45 | 48.95110 | 8.27933 | 30401 ft | 414 kts | 200° |
| 2026-05-04 14:45 | 48.92385 | 8.26495 | 30713 ft | 417 kts | 200° |
| 2026-05-04 14:46 | 48.89639 | 8.25048 | 31033 ft | 419 kts | 200° |
| 2026-05-04 14:46 | 48.86880 | 8.23596 | 31467 ft | 420 kts | 200° |
| 2026-05-04 14:46 | 48.84156 | 8.22165 | 31916 ft | 419 kts | 201° |
| 2026-05-04 14:46 | 48.81373 | 8.20704 | 32347 ft | 418 kts | 201° |
| 2026-05-04 14:47 | 48.78615 | 8.19258 | 32761 ft | 418 kts | 201° |
| 2026-05-04 14:47 | 48.75910 | 8.17840 | 33164 ft | 417 kts | 201° |
| 2026-05-04 14:47 | 48.73161 | 8.16402 | 33587 ft | 417 kts | 201° |
| 2026-05-04 14:47 | 48.70425 | 8.14972 | 34039 ft | 417 kts | 201° |
| 2026-05-04 14:48 | 48.67679 | 8.13538 | 34418 ft | 416 kts | 201° |
| 2026-05-04 14:48 | 48.64953 | 8.12116 | 34768 ft | 416 kts | 201° |
| 2026-05-04 14:48 | 48.62227 | 8.10695 | 35079 ft | 416 kts | 201° |
| 2026-05-04 14:48 | 48.59490 | 8.09271 | 35373 ft | 415 kts | 201° |
| 2026-05-04 14:49 | 48.56764 | 8.07854 | 35675 ft | 415 kts | 201° |
| 2026-05-04 14:49 | 48.54950 | 8.06913 | 35842 ft | 415 kts | 201° |
| 2026-05-04 14:49 | 48.51293 | 8.05016 | 36219 ft | 415 kts | 201° |
| 2026-05-04 14:49 | 48.48558 | 8.03599 | 36476 ft | 415 kts | 201° |
| 2026-05-04 14:50 | 48.45827 | 8.02185 | 36774 ft | 414 kts | 200° |
| 2026-05-04 14:50 | 48.44020 | 8.01252 | 36918 ft | 415 kts | 200° |
| 2026-05-04 14:50 | 48.41292 | 7.99843 | 37149 ft | 415 kts | 200° |
| 2026-05-04 14:50 | 48.38571 | 7.98439 | 37396 ft | 415 kts | 200° |
| 2026-05-04 14:51 | 48.35830 | 7.97028 | 37633 ft | 415 kts | 200° |
| 2026-05-04 14:51 | 48.33103 | 7.95624 | 37825 ft | 415 kts | 200° |
| 2026-05-04 14:51 | 48.30528 | 7.94301 | 38041 ft | 415 kts | 200° |
| 2026-05-04 14:51 | 48.27801 | 7.92901 | 38239 ft | 415 kts | 200° |
| 2026-05-04 14:52 | 48.25068 | 7.91499 | 38408 ft | 416 kts | 200° |
| 2026-05-04 14:52 | 48.22318 | 7.90090 | 38616 ft | 416 kts | 200° |
| 2026-05-04 14:52 | 48.19583 | 7.88691 | 38788 ft | 416 kts | 200° |
| 2026-05-04 14:52 | 48.16842 | 7.87289 | 38914 ft | 416 kts | 200° |
| 2026-05-04 14:53 | 48.11362 | 7.84492 | 38985 ft | 416 kts | 200° |
| 2026-05-04 14:53 | 48.05896 | 7.81710 | 38978 ft | 415 kts | 200° |
| 2026-05-04 14:54 | 48.00418 | 7.78927 | 38982 ft | 416 kts | 200° |
| 2026-05-04 14:54 | 47.94964 | 7.76162 | 38984 ft | 416 kts | 200° |
| 2026-05-04 14:55 | 47.89459 | 7.73378 | 38982 ft | 416 kts | 200° |
| 2026-05-04 14:55 | 47.83980 | 7.70613 | 38987 ft | 416 kts | 200° |
| 2026-05-04 14:56 | 47.78532 | 7.67870 | 38986 ft | 416 kts | 200° |
| 2026-05-04 14:56 | 47.73005 | 7.65093 | 38999 ft | 416 kts | 200° |
| 2026-05-04 14:57 | 47.67548 | 7.62357 | 38992 ft | 417 kts | 200° |
| 2026-05-04 14:57 | 47.62057 | 7.59612 | 38989 ft | 417 kts | 200° |
| 2026-05-04 14:58 | 47.56558 | 7.56868 | 38989 ft | 417 kts | 200° |
| 2026-05-04 14:58 | 47.51069 | 7.54134 | 38990 ft | 417 kts | 200° |
| 2026-05-04 14:59 | 47.45567 | 7.51401 | 38985 ft | 416 kts | 200° |
| 2026-05-04 15:00 | 47.37329 | 7.47319 | 39001 ft | 417 kts | 200° |
| 2026-05-04 15:00 | 47.31926 | 7.44650 | 39021 ft | 417 kts | 200° |
| 2026-05-04 15:01 | 47.23715 | 7.40604 | 39028 ft | 417 kts | 201° |
| 2026-05-04 15:01 | 47.18416 | 7.37220 | 39025 ft | 414 kts | 213° |
| 2026-05-04 15:02 | 47.13909 | 7.32037 | 39031 ft | 411 kts | 226° |
| 2026-05-04 15:02 | 47.10261 | 7.25581 | 39030 ft | 411 kts | 232° |
| 2026-05-04 15:03 | 47.06713 | 7.19020 | 39029 ft | 411 kts | 231° |
| 2026-05-04 15:03 | 47.03149 | 7.12479 | 39047 ft | 410 kts | 231° |
| 2026-05-04 15:04 | 46.99604 | 7.05994 | 39073 ft | 410 kts | 231° |
| 2026-05-04 15:04 | 46.96038 | 6.99483 | 39066 ft | 409 kts | 231° |
| 2026-05-04 15:05 | 46.92446 | 6.93038 | 39076 ft | 409 kts | 229° |
| 2026-05-04 15:05 | 46.88364 | 6.87231 | 39069 ft | 409 kts | 221° |
| 2026-05-04 15:06 | 46.83951 | 6.82008 | 39068 ft | 409 kts | 220° |
| 2026-05-04 15:07 | 46.77336 | 6.74148 | 39069 ft | 408 kts | 220° |
| 2026-05-04 15:07 | 46.72935 | 6.68926 | 39058 ft | 408 kts | 220° |
| 2026-05-04 15:08 | 46.68523 | 6.63702 | 39049 ft | 408 kts | 220° |
| 2026-05-04 15:08 | 46.64107 | 6.58486 | 39043 ft | 408 kts | 220° |
| 2026-05-04 15:09 | 46.59695 | 6.53284 | 39034 ft | 408 kts | 220° |
| 2026-05-04 15:09 | 46.55311 | 6.48128 | 39059 ft | 408 kts | 220° |
| 2026-05-04 15:10 | 46.49475 | 6.41282 | 39063 ft | 408 kts | 220° |
| 2026-05-04 15:11 | 46.42847 | 6.33528 | 39073 ft | 407 kts | 220° |
| 2026-05-04 15:11 | 46.38438 | 6.28386 | 39075 ft | 407 kts | 220° |
| 2026-05-04 15:12 | 46.34036 | 6.23261 | 39082 ft | 406 kts | 220° |
| 2026-05-04 15:12 | 46.29619 | 6.18184 | 39078 ft | 405 kts | 218° |
| 2026-05-04 15:13 | 46.24696 | 6.14173 | 39072 ft | 409 kts | 206° |
| 2026-05-04 15:13 | 46.19227 | 6.11826 | 39068 ft | 414 kts | 194° |
| 2026-05-04 15:14 | 46.13518 | 6.10584 | 39061 ft | 414 kts | 193° |
| 2026-05-04 15:14 | 46.07851 | 6.09330 | 39032 ft | 414 kts | 193° |
| 2026-05-04 15:15 | 46.02119 | 6.08058 | 39034 ft | 414 kts | 193° |
| 2026-05-04 15:15 | 45.96452 | 6.06805 | 39035 ft | 415 kts | 193° |
| 2026-05-04 15:16 | 45.87902 | 6.04918 | 39033 ft | 415 kts | 193° |
| 2026-05-04 15:17 | 45.79356 | 6.03034 | 39052 ft | 415 kts | 193° |
| 2026-05-04 15:17 | 45.70763 | 6.01136 | 39053 ft | 416 kts | 193° |
| 2026-05-04 15:18 | 45.65145 | 5.99900 | 39048 ft | 416 kts | 193° |
| 2026-05-04 15:19 | 45.56574 | 5.98018 | 39052 ft | 416 kts | 193° |
| 2026-05-04 15:19 | 45.47985 | 5.96129 | 39053 ft | 415 kts | 195° |
| 2026-05-04 15:20 | 45.42455 | 5.94449 | 39045 ft | 413 kts | 197° |
| 2026-05-04 15:20 | 45.36883 | 5.92691 | 39036 ft | 413 kts | 197° |
| 2026-05-04 15:21 | 45.31432 | 5.90985 | 39042 ft | 413 kts | 197° |
| 2026-05-04 15:22 | 45.23010 | 5.88369 | 39030 ft | 414 kts | 197° |
| 2026-05-04 15:22 | 45.14577 | 5.85755 | 39021 ft | 412 kts | 197° |
| 2026-05-04 15:23 | 45.08972 | 5.84021 | 39018 ft | 412 kts | 197° |
| 2026-05-04 15:23 | 45.03372 | 5.82291 | 39017 ft | 412 kts | 197° |
| 2026-05-04 15:24 | 44.92186 | 5.78850 | 39014 ft | 410 kts | 197° |
| 2026-05-04 15:25 | 44.86622 | 5.77143 | 39008 ft | 408 kts | 197° |
| 2026-05-04 15:26 | 44.78315 | 5.74600 | 38996 ft | 406 kts | 197° |
| 2026-05-04 15:26 | 44.70026 | 5.72071 | 39014 ft | 408 kts | 197° |
| 2026-05-04 15:27 | 44.61759 | 5.69554 | 39023 ft | 408 kts | 197° |
| 2026-05-04 15:28 | 44.53445 | 5.67031 | 39022 ft | 407 kts | 197° |
| 2026-05-04 15:29 | 44.45154 | 5.64522 | 39014 ft | 406 kts | 197° |
| 2026-05-04 15:30 | 44.26614 | 5.56118 | 39027 ft | 402 kts | 206° |
| 2026-05-04 15:31 | 44.18821 | 5.51857 | 39020 ft | 399 kts | 205° |
| 2026-05-04 15:32 | 44.05889 | 5.44814 | 39024 ft | 399 kts | 205° |
| 2026-05-04 15:34 | 43.92977 | 5.37814 | 39020 ft | 398 kts | 205° |
| 2026-05-04 15:34 | 43.85259 | 5.33642 | 39008 ft | 396 kts | 205° |
| 2026-05-04 15:35 | 43.77555 | 5.29490 | 39015 ft | 395 kts | 205° |
| 2026-05-04 15:36 | 43.69881 | 5.25365 | 39010 ft | 394 kts | 205° |
| 2026-05-04 15:36 | 43.64863 | 5.22675 | 38981 ft | 394 kts | 205° |
| 2026-05-04 15:37 | 43.59767 | 5.19947 | 38983 ft | 393 kts | 205° |
| 2026-05-04 15:37 | 43.54664 | 5.17220 | 38982 ft | 393 kts | 205° |
| 2026-05-04 15:38 | 43.49552 | 5.14493 | 38983 ft | 393 kts | 205° |
| 2026-05-04 15:38 | 43.44457 | 5.11781 | 38990 ft | 394 kts | 205° |
| 2026-05-04 15:39 | 43.40239 | 5.09433 | 38988 ft | 392 kts | 209° |
| 2026-05-04 15:40 | 43.33294 | 5.03688 | 38983 ft | 388 kts | 218° |
| 2026-05-04 15:40 | 43.28911 | 4.99519 | 38986 ft | 389 kts | 217° |
| 2026-05-04 15:41 | 43.24435 | 4.95308 | 38979 ft | 389 kts | 217° |
| 2026-05-04 15:41 | 43.19972 | 4.91120 | 38972 ft | 389 kts | 217° |
| 2026-05-04 15:42 | 43.15505 | 4.86935 | 38964 ft | 389 kts | 217° |
| 2026-05-04 15:42 | 43.11048 | 4.82765 | 38959 ft | 388 kts | 217° |
| 2026-05-04 15:43 | 43.06583 | 4.78600 | 38956 ft | 388 kts | 217° |
| 2026-05-04 15:43 | 43.01933 | 4.74873 | 38951 ft | 390 kts | 212° |
| 2026-05-04 15:44 | 42.97161 | 4.71272 | 38945 ft | 390 kts | 213° |
| 2026-05-04 15:44 | 42.92417 | 4.67682 | 38941 ft | 389 kts | 213° |
| 2026-05-04 15:45 | 42.87718 | 4.64129 | 38936 ft | 389 kts | 213° |
| 2026-05-04 15:45 | 42.82983 | 4.60555 | 38931 ft | 389 kts | 213° |
| 2026-05-04 15:46 | 42.78243 | 4.56983 | 38926 ft | 389 kts | 213° |
| 2026-05-04 15:46 | 42.73504 | 4.53419 | 38923 ft | 389 kts | 213° |
| 2026-05-04 15:47 | 42.68766 | 4.49862 | 38917 ft | 389 kts | 213° |
| 2026-05-04 15:47 | 42.64032 | 4.46314 | 38915 ft | 390 kts | 213° |
| 2026-05-04 15:48 | 42.59276 | 4.42756 | 38915 ft | 390 kts | 213° |
| 2026-05-04 15:48 | 42.52141 | 4.37429 | 38913 ft | 391 kts | 213° |
| 2026-05-04 15:49 | 42.47359 | 4.33868 | 38914 ft | 392 kts | 213° |
| 2026-05-04 15:49 | 42.42572 | 4.30307 | 38917 ft | 394 kts | 213° |
| 2026-05-04 15:50 | 42.37766 | 4.26741 | 38923 ft | 394 kts | 213° |
| 2026-05-04 15:50 | 42.32952 | 4.23174 | 38928 ft | 395 kts | 213° |
| 2026-05-04 15:51 | 42.28159 | 4.19629 | 38925 ft | 395 kts | 213° |
| 2026-05-04 15:51 | 42.23343 | 4.16073 | 38916 ft | 393 kts | 213° |
| 2026-05-04 15:52 | 42.18585 | 4.12567 | 38914 ft | 392 kts | 213° |
| 2026-05-04 15:52 | 42.13906 | 4.09124 | 38917 ft | 390 kts | 213° |
| 2026-05-04 15:53 | 42.09190 | 4.05664 | 38914 ft | 390 kts | 213° |
| 2026-05-04 15:53 | 42.04434 | 4.02180 | 38914 ft | 389 kts | 213° |
| 2026-05-04 15:54 | 41.99676 | 3.98700 | 38914 ft | 389 kts | 213° |
| 2026-05-04 15:54 | 41.94924 | 3.95229 | 38913 ft | 388 kts | 213° |
| 2026-05-04 15:55 | 41.90198 | 3.91817 | 38910 ft | 388 kts | 211° |
| 2026-05-04 15:55 | 41.85356 | 3.88597 | 38914 ft | 388 kts | 211° |
| 2026-05-04 15:56 | 41.80520 | 3.85386 | 38911 ft | 388 kts | 211° |
| 2026-05-04 15:56 | 41.75691 | 3.82153 | 38910 ft | 387 kts | 211° |
| 2026-05-04 15:57 | 41.70878 | 3.78928 | 38910 ft | 387 kts | 211° |
| 2026-05-04 15:57 | 41.66067 | 3.75711 | 38910 ft | 387 kts | 211° |
| 2026-05-04 15:58 | 41.61253 | 3.72496 | 38907 ft | 386 kts | 211° |
| 2026-05-04 15:58 | 41.56444 | 3.69291 | 38909 ft | 386 kts | 211° |
| 2026-05-04 15:59 | 41.51638 | 3.66093 | 38907 ft | 386 kts | 211° |
| 2026-05-04 15:59 | 41.46826 | 3.62896 | 38904 ft | 386 kts | 211° |
| 2026-05-04 16:00 | 41.42028 | 3.59714 | 38905 ft | 386 kts | 211° |
| 2026-05-04 16:00 | 41.37209 | 3.56524 | 38908 ft | 386 kts | 211° |
| 2026-05-04 16:01 | 41.32402 | 3.53346 | 38909 ft | 386 kts | 211° |
| 2026-05-04 16:01 | 41.27619 | 3.50190 | 38907 ft | 386 kts | 211° |
| 2026-05-04 16:02 | 41.22839 | 3.47041 | 38910 ft | 387 kts | 211° |
| 2026-05-04 16:03 | 41.15211 | 3.43305 | 38910 ft | 394 kts | 200° |
| 2026-05-04 16:03 | 41.09816 | 3.41857 | 38914 ft | 396 kts | 197° |
| 2026-05-04 16:04 | 41.04550 | 3.40477 | 38915 ft | 396 kts | 198° |
| 2026-05-04 16:04 | 40.96433 | 3.38333 | 38912 ft | 396 kts | 198° |
| 2026-05-04 16:05 | 40.91022 | 3.36910 | 38916 ft | 397 kts | 198° |
| 2026-05-04 16:06 | 40.82888 | 3.34776 | 38912 ft | 397 kts | 198° |
| 2026-05-04 16:07 | 40.72084 | 3.31949 | 38909 ft | 397 kts | 198° |
| 2026-05-04 16:08 | 40.61225 | 3.29118 | 38914 ft | 398 kts | 198° |
| 2026-05-04 16:09 | 40.47619 | 3.25583 | 38909 ft | 399 kts | 198° |
| 2026-05-04 16:10 | 40.36720 | 3.22762 | 38908 ft | 399 kts | 198° |
| 2026-05-04 16:11 | 40.25803 | 3.19944 | 38893 ft | 400 kts | 198° |
| 2026-05-04 16:12 | 40.17684 | 3.17856 | 37548 ft | 394 kts | 198° |
| 2026-05-04 16:12 | 40.09619 | 3.15777 | 35455 ft | 393 kts | 197° |
| 2026-05-04 16:13 | 40.04258 | 3.14399 | 34107 ft | 393 kts | 196° |
| 2026-05-04 16:13 | 39.98883 | 3.13019 | 32494 ft | 395 kts | 196° |
| 2026-05-04 16:14 | 39.93558 | 3.11376 | 30708 ft | 397 kts | 202° |
| 2026-05-04 16:14 | 39.88505 | 3.08392 | 29159 ft | 391 kts | 212° |
| 2026-05-04 16:15 | 39.81480 | 3.03248 | 27060 ft | 382 kts | 212° |
| 2026-05-04 16:16 | 39.76885 | 2.99913 | 25789 ft | 376 kts | 212° |
| 2026-05-04 16:16 | 39.70124 | 2.95015 | 23967 ft | 368 kts | 213° |
| 2026-05-04 16:17 | 39.65674 | 2.91797 | 22645 ft | 364 kts | 213° |
| 2026-05-04 16:18 | 39.59091 | 2.87040 | 20638 ft | 358 kts | 213° |
| 2026-05-04 16:18 | 39.56922 | 2.85475 | 20002 ft | 357 kts | 213° |
| 2026-05-04 16:19 | 39.50442 | 2.80807 | 18185 ft | 353 kts | 212° |
| 2026-05-04 16:19 | 39.46168 | 2.77732 | 16960 ft | 348 kts | 213° |
| 2026-05-04 16:20 | 39.41361 | 2.71263 | 15234 ft | 333 kts | 243° |
| 2026-05-04 16:20 | 39.39270 | 2.65950 | 14135 ft | 329 kts | 243° |
| 2026-05-04 16:21 | 39.36192 | 2.58130 | 12451 ft | 321 kts | 243° |
| 2026-05-04 16:22 | 39.34173 | 2.53021 | 11379 ft | 316 kts | 243° |
| 2026-05-04 16:22 | 39.31218 | 2.45564 | 10139 ft | 299 kts | 242° |
| 2026-05-04 16:23 | 39.28578 | 2.38917 | 9676 ft | 263 kts | 242° |
| 2026-05-04 16:24 | 39.25256 | 2.30578 | 8006 ft | 258 kts | 242° |
| 2026-05-04 16:25 | 39.23632 | 2.26507 | 7246 ft | 255 kts | 242° |
| 2026-05-04 16:26 | 39.20394 | 2.18410 | 5657 ft | 252 kts | 242° |
| 2026-05-04 16:26 | 39.17991 | 2.12421 | 4998 ft | 252 kts | 242° |
| 2026-05-04 16:27 | 39.16392 | 2.08438 | 4991 ft | 251 kts | 242° |
| 2026-05-04 16:28 | 39.14256 | 2.03127 | 4991 ft | 251 kts | 242° |
| 2026-05-04 16:28 | 39.11847 | 1.97147 | 4989 ft | 251 kts | 242° |
| 2026-05-04 16:29 | 39.08629 | 1.89173 | 4991 ft | 251 kts | 242° |
| 2026-05-04 16:30 | 39.06212 | 1.83200 | 4992 ft | 251 kts | 242° |
| 2026-05-04 16:31 | 39.04600 | 1.79219 | 4991 ft | 251 kts | 242° |
| 2026-05-04 16:31 | 39.02174 | 1.73248 | 4997 ft | 251 kts | 242° |
| 2026-05-04 16:32 | 38.99786 | 1.67538 | 4826 ft | 226 kts | 240° |
| 2026-05-04 16:33 | 38.98325 | 1.64099 | 4362 ft | 215 kts | 242° |
| 2026-05-04 16:33 | 38.96950 | 1.60762 | 3810 ft | 207 kts | 241° |
| 2026-05-04 16:34 | 38.95658 | 1.57624 | 3291 ft | 193 kts | 242° |
| 2026-05-04 16:34 | 38.95044 | 1.56133 | 3083 ft | 183 kts | 241° |
| 2026-05-04 16:35 | 38.93408 | 1.52162 | 2392 ft | 154 kts | 240° |
| 2026-05-04 16:35 | 38.91893 | 1.48488 | 1755 ft | 154 kts | 240° |
| 2026-05-04 16:36 | 38.91385 | 1.47255 | 1563 ft | 158 kts | 239° |
| 2026-05-04 16:36 | 38.90391 | 1.44845 | 1139 ft | 143 kts | 239° |
| 2026-05-04 16:37 | 38.89556 | 1.42820 | 802 ft | 121 kts | 240° |
| 2026-05-04 16:37 | 38.89155 | 1.41851 | 646 ft | 124 kts | 239° |
| 2026-05-04 16:37 | 38.88365 | 1.39949 | 275 ft | 119 kts | 238° |
| 2026-05-04 16:38 | 38.87606 | 1.38094 | 21 ft | 110 kts | 240° |
| 2026-05-04 16:39 | 38.87262 | 1.36977 | 7 ft | 15 kts | 271° |
| 2026-05-04 16:39 | 38.87396 | 1.36804 | 9 ft | 9 kts | 335° |
| 2026-05-04 16:40 | 38.87444 | 1.36779 | 8 ft | 8 kts | 345° |
| 2026-05-04 16:40 | 38.87469 | 1.36782 | 8 ft | 3 kts | 13° |
| 2026-05-04 16:41 | 38.87507 | 1.36795 | 10 ft | 3 kts | 17° |
| 2026-05-04 16:41 | 38.87508 | 1.36796 | 9 ft | 0 kts | 17° |